• Join FlightAware (Why Join?)
  • Login
  • US Flag 
07:02PM EDT


 

Airport Tracker/Info


-or-


 

Live Flight TrackerFlight Track Log ✈ N79470 ✈ 18-Jun-2013 ✈ KPWM - KMVL

Flight Track Log - Related Links

Times and Time Zones

All times are in EDT time to prevent confusion due to time zone crossing. See the N79470 flight status page for this flight to view local times or setup timezone preferences in your user account.

Time Position Orientation Groundspeed Altitude Reporting Facility
EDT Latitude Longitude Course Direction KTS MPH feet Rate Location/Type
01:40PM 43.6948 -70.4562 305° West  Level FlightAware Approximate
01:41PM 43.7112 -70.4835 313° West  Level FlightAware Approximate
01:42PM 43.7287 -70.5097 313° West  Level FlightAware Approximate
01:43PM 43.7412 -70.5404 295° West  Level FlightAware Approximate
01:44PM 43.7520 -70.5727 295° West  Level FlightAware Approximate
01:45PM 43.7628 -70.6051 295° West  Level FlightAware Approximate
01:46PM 43.7736 -70.6375 295° West  Level FlightAware Approximate
01:47PM 43.7845 -70.6697 299° West  Level FlightAware Approximate
01:48PM 43.7969 -70.7010 299° West  Level FlightAware Approximate
01:49PM 43.8092 -70.7324 299° West  Level FlightAware Approximate
01:50PM 43.8215 -70.7637 299° West  Level FlightAware Approximate
01:51PM 43.8338 -70.7951 299° West  Level FlightAware Approximate
01:52PM 43.8461 -70.8264 299° West  Level FlightAware Approximate
01:52PM 43.7775 -70.7178 298° West 83 96 8,200  Level Boston Center
01:53PM 43.8584 -70.8578 299° West  Level FlightAware Approximate
01:53PM 43.7842 -70.7378 295° West 83 96 8,300  Level Boston Center
01:54PM 43.8707 -70.8892 298° West  Level FlightAware Approximate
01:54PM 43.7950 -70.7689 296° West 89 102 8,300  Level Boston Center
01:55PM 43.8829 -70.9206 298° West  Level FlightAware Approximate
01:55PM 43.8036 -70.7947 295° West 82 94 8,300  Level Boston Center
01:56PM 43.8952 -70.9520 298° West  Level FlightAware Approximate
01:56PM 43.8144 -70.8289 294° West 82 94 8,300  Level Boston Center
01:57PM 43.9074 -70.9834 298° West  Level FlightAware Approximate
01:57PM 43.8275 -70.8572 303° West 93 107 8,200  Level Boston Center
01:58PM 43.8403 -70.8886 299° West 93 107 8,100  Descending Boston Center
01:59PM 43.8511 -70.9142 300° West 93 107 8,200  Climbing Boston Center
02:00PM 43.8683 -70.9456 307° West 93 107 8,100  Descending Boston Center
02:01PM 43.8808 -70.9653 311° West 86 99 8,200  Climbing Boston Center
02:02PM 43.8958 -70.9939 306° West 81 93 8,200  Level Boston Center
02:03PM 43.9086 -71.0167 308° West 81 93 8,200 -60 Level Boston Center
02:04PM 43.9236 -71.0422 309° West 81 93 8,100 -60 Descending Boston Center
02:05PM 43.9364 -71.0650 308° West 81 93 8,100  Level Boston Center
02:06PM 43.9514 -71.0933 306° West 81 93 8,100  Level Boston Center
02:07PM 43.9642 -71.1161 308° West 81 93 8,200  Climbing Boston Center
02:08PM 43.9789 -71.1475 303° West 81 93 8,200  Level Boston Center
02:09PM 43.9939 -71.1703 312° West 81 93 8,300  Climbing Boston Center
02:10PM 44.0108 -71.1931 316° Northwest 81 93 8,300 -60 Level Boston Center
02:11PM 44.0258 -71.2244 304° West 87 100 8,200  Descending Boston Center
02:12PM 44.0406 -71.2472 312° West 87 100 8,300  Climbing Boston Center
02:13PM 44.0594 -71.2731 316° Northwest 82 94 8,300 -120 Level Boston Center
02:14PM 44.0744 -71.2986 309° West 82 94 8,100 -120 Descending Boston Center
02:15PM 44.0892 -71.3244 308° West 82 94 8,100  Level Boston Center
02:16PM 44.1042 -71.3531 306° West 82 94 8,200  Climbing Boston Center
02:17PM 44.1189 -71.3758 312° West 82 94 8,100 -60 Descending Boston Center
02:18PM 44.1336 -71.3989 312° West 82 94 8,100 60 Level Boston Center
02:19PM 44.1483 -71.4217 312° West 82 94 8,300  Climbing Boston Center
02:20PM 44.1653 -71.4475 312° West 82 94 8,200 -120 Descending Boston Center
02:21PM 44.1803 -71.4703 313° West 82 94 8,100  Descending Boston Center
02:22PM 44.1928 -71.4961 304° West 82 94 8,200  Climbing Boston Center
02:23PM 44.2119 -71.5278 310° West 88 101 8,200  Level Boston Center
02:24PM 44.2244 -71.5536 304° West 88 101 8,300  Climbing Boston Center
02:25PM 44.2414 -71.5794 312° West 93 107 8,200 -60 Descending Boston Center
02:26PM 44.2542 -71.6111 299° West 93 107 8,200 -60 Level Boston Center
02:27PM 44.2689 -71.6283 320° Northwest 93 107 8,100 -60 Descending Boston Center
02:28PM 44.2878 -71.6572 312° West 93 107 8,100  Level Boston Center
02:29PM 44.3047 -71.6858 310° West 88 101 8,100  Level Boston Center
02:30PM 44.3194 -71.7147 305° West 88 101 8,100  Level Boston Center
02:31PM 44.3364 -71.7406 313° West 88 101 8,200  Climbing Boston Center
02:32PM 44.3511 -71.7667 308° West 83 96 8,200  Level Boston Center
02:33PM 44.3636 -71.7925 304° West 83 96 8,200  Level Boston Center
02:34PM 44.3783 -71.8272 301° West 83 96 8,200  Level Boston Center
02:35PM 44.3953 -71.8503 316° Northwest 83 96 8,200  Level Boston Center
02:36PM 44.4119 -71.8792 309° West 83 96 8,200  Level Boston Center
02:37PM 44.4308 -71.9022 319° Northwest 83 96 8,200  Level Boston Center
02:38PM 44.4478 -71.9253 316° Northwest 83 96 8,200 -60 Level Boston Center
02:39PM 44.4603 -71.9572 299° West 88 101 8,100 -60 Descending Boston Center
02:40PM 44.4731 -71.9833 304° West 83 96 8,100 -60 Level Boston Center
02:41PM 44.4875 -72.0122 305° West 83 96 8,000  Descending Boston Center
02:42PM 44.4961 -72.0414 292° West 83 96 8,100 60 Climbing Boston Center
02:43PM 44.5086 -72.0703 301° West 83 96 8,200  Climbing Boston Center
02:44PM 44.5256 -72.0994 309° West 88 101 8,200 -60 Level Boston Center
02:45PM 44.5400 -72.1256 308° West 88 101 8,100 -120 Descending Boston Center
02:46PM 44.5569 -72.1517 312° West 88 101 8,000 -300 Descending Boston Center
02:47PM 44.5736 -72.1808 309° West 88 101 7,600 -540 Descending Boston Center
02:48PM 44.5842 -72.2156 293° West 93 107 7,000 -480 Descending Boston Center
02:49PM 44.6008 -72.2447 309° West 99 114 6,700 -180 Descending Boston Center
02:50PM 44.6153 -72.2739 305° West 99 114 6,700  Level Boston Center
02:51PM 44.6300 -72.3031 305° West 99 114 6,800  Climbing Boston Center
02:52PM 44.6425 -72.3350 299° West 94 108 6,800  Level Boston Center
02:53PM 44.6592 -72.3583 315° West 94 108 6,800 -60 Level Boston Center
02:54PM 44.6758 -72.3875 309° West 94 108 6,700  Descending Boston Center
02:55PM 44.6925 -72.4167 309° West 94 108 6,800  Climbing Boston Center
02:56PM 44.7133 -72.4489 312° West 99 114 6,800 -60 Level Boston Center
02:57PM 44.7300 -72.4781 309° West 99 114 6,700 -60 Descending Boston Center
02:58PM 44.7467 -72.5044 312° West 99 114 6,700 -180 Level Boston Center
02:59PM 44.7508 -72.5394 280° West 99 114 6,400 -300 Descending Boston Center
03:01PM 44.7500 -72.5897 270° West  Level FlightAware Approximate